EZY26PR EDDH-EGKK
Flight info
| Callsign | EZY26PR |
|---|---|
| Flight time | N/A |
| Altitude | 38000 |
| Route | WSN5G/33 WSN N125 ONTAZ DCT GALSO Q63 ARREK Y4 TEBRA |
| Aircraft | A320/M-SDE3FGHIRWY/LB1 |
Departure
| Time | 2026-05-04 17:58 |
|---|---|
| Airport | Hamburg Helmut Schmidt Airport (EDDH) |
Arrival
| Time | N/A |
|---|---|
| Airport | London Gatwick Airport (EGKK) |
| Time | Latitude | Longitude | Altitude | Speed | Heading |
|---|---|---|---|---|---|
| 2026-05-04 17:51 | 53.63144 | 10.00256 | 44 ft | 0 kts | 176° |
| 2026-05-04 17:52 | 53.63115 | 10.00259 | 45 ft | 11 kts | 176° |
| 2026-05-04 17:52 | 53.63039 | 10.00228 | 49 ft | 11 kts | 207° |
| 2026-05-04 17:53 | 53.62974 | 10.00160 | 49 ft | 11 kts | 212° |
| 2026-05-04 17:53 | 53.62909 | 10.00091 | 46 ft | 11 kts | 212° |
| 2026-05-04 17:53 | 53.62858 | 9.99999 | 49 ft | 11 kts | 237° |
| 2026-05-04 17:53 | 53.62844 | 9.99957 | 46 ft | 0 kts | 242° |
| 2026-05-04 17:55 | 53.62819 | 9.99875 | 44 ft | 15 kts | 246° |
| 2026-05-04 17:55 | 53.62841 | 9.99768 | 46 ft | 0 kts | 333° |
| 2026-05-04 17:57 | 53.62883 | 9.99732 | 45 ft | 30 kts | 333° |
| 2026-05-04 17:57 | 53.63381 | 9.99298 | 47 ft | 125 kts | 332° |
| 2026-05-04 17:57 | 53.64330 | 9.98463 | 377 ft | 170 kts | 331° |
| 2026-05-04 17:58 | 53.65454 | 9.97481 | 1101 ft | 194 kts | 332° |
| 2026-05-04 17:58 | 53.66693 | 9.96424 | 2071 ft | 206 kts | 332° |
| 2026-05-04 17:58 | 53.67988 | 9.95323 | 3312 ft | 211 kts | 330° |
| 2026-05-04 17:58 | 53.69319 | 9.94186 | 4378 ft | 218 kts | 329° |
| 2026-05-04 17:59 | 53.70544 | 9.92713 | 4785 ft | 216 kts | 307° |
| 2026-05-04 17:59 | 53.71220 | 9.90493 | 4959 ft | 222 kts | 282° |
| 2026-05-04 17:59 | 53.70634 | 9.84930 | 5005 ft | 252 kts | 251° |
| 2026-05-04 18:00 | 53.70058 | 9.82103 | 5013 ft | 254 kts | 252° |
| 2026-05-04 18:00 | 53.69487 | 9.79296 | 5006 ft | 254 kts | 252° |
| 2026-05-04 18:00 | 53.68916 | 9.76463 | 5006 ft | 254 kts | 252° |
| 2026-05-04 18:00 | 53.68361 | 9.73671 | 5008 ft | 254 kts | 252° |
| 2026-05-04 18:01 | 53.67797 | 9.70812 | 5502 ft | 258 kts | 252° |
| 2026-05-04 18:01 | 53.67232 | 9.67945 | 6835 ft | 257 kts | 252° |
| 2026-05-04 18:01 | 53.66666 | 9.65070 | 8026 ft | 260 kts | 252° |
| 2026-05-04 18:02 | 53.65476 | 9.59165 | 9733 ft | 270 kts | 248° |
| 2026-05-04 18:02 | 53.64569 | 9.56344 | 10288 ft | 285 kts | 237° |
| 2026-05-04 18:02 | 53.63366 | 9.53542 | 10939 ft | 302 kts | 235° |
| 2026-05-04 18:02 | 53.62116 | 9.50636 | 11837 ft | 310 kts | 235° |
| 2026-05-04 18:03 | 53.60831 | 9.47635 | 12821 ft | 315 kts | 235° |
| 2026-05-04 18:03 | 53.59564 | 9.44673 | 13769 ft | 321 kts | 236° |
| 2026-05-04 18:03 | 53.58251 | 9.41600 | 14618 ft | 325 kts | 236° |
| 2026-05-04 18:03 | 53.56917 | 9.38496 | 15506 ft | 329 kts | 236° |
| 2026-05-04 18:04 | 53.55568 | 9.35366 | 16381 ft | 332 kts | 236° |
| 2026-05-04 18:04 | 53.54201 | 9.32203 | 17260 ft | 336 kts | 236° |
| 2026-05-04 18:04 | 53.51421 | 9.25776 | 18896 ft | 343 kts | 236° |
| 2026-05-04 18:05 | 53.50017 | 9.22527 | 19656 ft | 345 kts | 236° |
| 2026-05-04 18:05 | 53.48616 | 9.19293 | 20421 ft | 348 kts | 236° |
| 2026-05-04 18:05 | 53.47185 | 9.15998 | 21186 ft | 351 kts | 236° |
| 2026-05-04 18:05 | 53.45742 | 9.12673 | 21957 ft | 354 kts | 236° |
| 2026-05-04 18:06 | 53.43112 | 9.05646 | 23443 ft | 358 kts | 248° |
| 2026-05-04 18:06 | 53.42124 | 9.01796 | 24097 ft | 361 kts | 248° |
| 2026-05-04 18:06 | 53.41132 | 8.97906 | 24743 ft | 363 kts | 247° |
| 2026-05-04 18:07 | 53.40139 | 8.94004 | 25364 ft | 365 kts | 247° |
| 2026-05-04 18:07 | 53.39142 | 8.90082 | 25977 ft | 367 kts | 247° |
| 2026-05-04 18:07 | 53.38134 | 8.86124 | 26569 ft | 369 kts | 246° |
| 2026-05-04 18:07 | 53.37122 | 8.82159 | 27162 ft | 371 kts | 246° |
| 2026-05-04 18:08 | 53.36116 | 8.78227 | 27712 ft | 373 kts | 246° |
| 2026-05-04 18:08 | 53.35088 | 8.74224 | 28280 ft | 375 kts | 245° |
| 2026-05-04 18:08 | 53.34051 | 8.70201 | 28808 ft | 377 kts | 245° |
| 2026-05-04 18:08 | 53.32997 | 8.66116 | 29348 ft | 379 kts | 245° |
| 2026-05-04 18:09 | 53.30898 | 8.57989 | 30316 ft | 384 kts | 245° |
| 2026-05-04 18:09 | 53.28773 | 8.49797 | 31117 ft | 388 kts | 245° |
| 2026-05-04 18:10 | 53.27695 | 8.45646 | 31500 ft | 391 kts | 245° |
| 2026-05-04 18:10 | 53.26606 | 8.41466 | 31878 ft | 393 kts | 245° |
| 2026-05-04 18:10 | 53.25514 | 8.37295 | 32354 ft | 392 kts | 245° |
| 2026-05-04 18:10 | 53.24419 | 8.33132 | 32896 ft | 390 kts | 246° |
| 2026-05-04 18:11 | 53.23331 | 8.28995 | 33445 ft | 388 kts | 246° |
| 2026-05-04 18:11 | 53.22247 | 8.24865 | 33994 ft | 386 kts | 246° |
| 2026-05-04 18:11 | 53.21172 | 8.20760 | 34427 ft | 386 kts | 246° |
| 2026-05-04 18:11 | 53.20104 | 8.16695 | 34779 ft | 387 kts | 246° |
| 2026-05-04 18:12 | 53.19016 | 8.12566 | 35108 ft | 389 kts | 246° |
| 2026-05-04 18:12 | 53.17922 | 8.08426 | 35442 ft | 390 kts | 246° |
| 2026-05-04 18:12 | 53.16822 | 8.04278 | 35760 ft | 392 kts | 246° |
| 2026-05-04 18:12 | 53.15715 | 8.00111 | 36070 ft | 394 kts | 246° |
| 2026-05-04 18:13 | 53.14601 | 7.95922 | 36386 ft | 395 kts | 246° |
| 2026-05-04 18:13 | 53.13485 | 7.91735 | 36697 ft | 397 kts | 246° |
| 2026-05-04 18:13 | 53.11245 | 7.83342 | 37295 ft | 400 kts | 246° |
| 2026-05-04 18:14 | 53.10113 | 7.79115 | 37592 ft | 401 kts | 246° |
| 2026-05-04 18:14 | 53.08968 | 7.74852 | 37891 ft | 403 kts | 246° |
| 2026-05-04 18:14 | 53.07825 | 7.70590 | 37989 ft | 403 kts | 246° |
| 2026-05-04 18:15 | 53.03233 | 7.53603 | 37992 ft | 402 kts | 245° |
| 2026-05-04 18:16 | 53.00945 | 7.45191 | 37986 ft | 402 kts | 245° |
| 2026-05-04 18:16 | 52.98647 | 7.36747 | 37987 ft | 401 kts | 245° |
| 2026-05-04 18:17 | 52.95178 | 7.24087 | 37982 ft | 401 kts | 245° |
| 2026-05-04 18:18 | 52.91712 | 7.11487 | 37980 ft | 401 kts | 245° |
| 2026-05-04 18:18 | 52.89387 | 7.03070 | 37982 ft | 402 kts | 245° |
| 2026-05-04 18:19 | 52.85875 | 6.90448 | 37970 ft | 402 kts | 245° |
| 2026-05-04 18:19 | 52.83525 | 6.82034 | 37990 ft | 402 kts | 244° |
| 2026-05-04 18:20 | 52.81191 | 6.73684 | 37978 ft | 403 kts | 244° |
| 2026-05-04 18:20 | 52.78830 | 6.65276 | 37989 ft | 403 kts | 244° |
| 2026-05-04 18:21 | 52.76461 | 6.56877 | 37987 ft | 403 kts | 244° |
| 2026-05-04 18:21 | 52.74083 | 6.48487 | 37986 ft | 403 kts | 244° |
| 2026-05-04 18:22 | 52.71694 | 6.40097 | 37992 ft | 404 kts | 244° |
| 2026-05-04 18:22 | 52.69312 | 6.31752 | 37991 ft | 404 kts | 244° |
| 2026-05-04 18:23 | 52.66917 | 6.23364 | 37991 ft | 405 kts | 244° |
| 2026-05-04 18:23 | 52.64508 | 6.14960 | 37992 ft | 405 kts | 244° |
| 2026-05-04 18:24 | 52.62089 | 6.06580 | 37989 ft | 405 kts | 243° |
| 2026-05-04 18:24 | 52.59674 | 5.98248 | 37986 ft | 406 kts | 243° |
| 2026-05-04 18:25 | 52.57247 | 5.89877 | 37985 ft | 406 kts | 243° |
| 2026-05-04 18:25 | 52.54808 | 5.81475 | 37983 ft | 406 kts | 243° |
| 2026-05-04 18:26 | 52.52358 | 5.73094 | 37984 ft | 407 kts | 243° |
| 2026-05-04 18:26 | 52.49898 | 5.64733 | 37981 ft | 407 kts | 243° |
| 2026-05-04 18:27 | 52.47447 | 5.56410 | 37973 ft | 407 kts | 243° |
| 2026-05-04 18:27 | 52.44978 | 5.48044 | 37970 ft | 407 kts | 243° |
| 2026-05-04 18:28 | 52.42501 | 5.39701 | 37969 ft | 407 kts | 243° |
| 2026-05-04 18:28 | 52.40028 | 5.31392 | 37982 ft | 408 kts | 243° |
| 2026-05-04 18:29 | 52.37536 | 5.23042 | 37977 ft | 408 kts | 243° |
| 2026-05-04 18:29 | 52.35037 | 5.14689 | 37989 ft | 408 kts | 243° |
| 2026-05-04 18:30 | 52.31270 | 5.02174 | 38002 ft | 409 kts | 243° |
| 2026-05-04 18:31 | 52.28748 | 4.93829 | 38000 ft | 409 kts | 242° |
| 2026-05-04 18:31 | 52.26236 | 4.85545 | 38005 ft | 409 kts | 242° |
| 2026-05-04 18:32 | 52.23695 | 4.77211 | 38002 ft | 410 kts | 242° |
| 2026-05-04 18:32 | 52.21147 | 4.68871 | 38002 ft | 410 kts | 242° |
| 2026-05-04 18:33 | 52.18604 | 4.60545 | 37997 ft | 410 kts | 242° |
| 2026-05-04 18:33 | 52.16062 | 4.52282 | 38002 ft | 411 kts | 242° |
| 2026-05-04 18:34 | 52.13495 | 4.43961 | 37977 ft | 411 kts | 242° |
| 2026-05-04 18:34 | 52.10915 | 4.35628 | 37978 ft | 412 kts | 242° |
| 2026-05-04 18:35 | 52.08771 | 4.28704 | 37983 ft | 412 kts | 242° |
| 2026-05-04 18:35 | 52.05777 | 4.19106 | 37979 ft | 412 kts | 242° |
| 2026-05-04 18:36 | 52.03607 | 4.12187 | 37987 ft | 412 kts | 242° |